Time;durP1;ratioP1;P1;durP2;ratioP2;P2;SDS_P1;SDS_P2;PMS_P1;PMS_P2;Temp;Humidity;BMP_temperature;BMP_pressure;BME280_temperature;BME280_humidity;BME280_pressure;Samples;Min_cycle;Max_cycle;Signal;HPM_P1;HPM_P2
2021/05/28 00:00:47;;;;;;;8.13;5.50;;;461.30;2380.80;;;;;;5075165;28;20020;-86
2021/05/28 00:03:13;;;;;;;9.55;5.65;;;461.30;2380.80;;;;;;5076123;28;20051;-84
2021/05/28 00:05:39;;;;;;;6.88;5.72;;;461.30;2380.80;;;;;;5074778;28;20052;-85
2021/05/28 00:08:05;;;;;;;9.07;6.15;;;461.30;2380.80;;;;;;5076575;28;20408;-84
2021/05/28 00:10:30;;;;;;;9.40;6.50;;;461.20;2380.80;;;;;;5091644;28;20020;-84
2021/05/28 00:12:57;;;;;;;8.23;6.40;;;461.00;2380.80;;;;;;5076027;28;20025;-86
2021/05/28 00:15:23;;;;;;;10.73;8.13;;;460.80;2380.80;;;;;;5074842;28;20033;-84
2021/05/28 00:17:48;;;;;;;8.50;6.88;;;460.80;2380.80;;;;;;5074818;28;20032;-84
2021/05/28 00:20:15;;;;;;;9.73;8.40;;;435.90;2355.20;;;;;;5074764;28;20369;-84
2021/05/28 00:22:42;;;;;;;9.20;7.38;;;435.70;2355.20;;;;;;5075957;28;20043;-85
2021/05/28 00:25:09;;;;;;;16.02;7.78;;;435.60;2355.20;;;;;;5076082;28;20029;-84
2021/05/28 00:27:35;;;;;;;9.30;7.40;;;435.90;2355.20;;;;;;5074626;28;20020;-84
2021/05/28 00:30:03;;;;;;;9.50;7.07;;;436.10;2355.20;;;;;;5074290;28;20050;-84
2021/05/28 00:32:29;;;;;;;10.20;7.70;;;435.90;2355.20;;;;;;5074304;28;20021;-86
2021/05/28 00:34:54;;;;;;;10.02;7.13;;;435.90;2355.20;;;;;;5074374;28;20456;-85
2021/05/28 00:37:20;;;;;;;9.43;7.28;;;436.00;2355.20;;;;;;5075412;28;20029;-84
2021/05/28 00:39:46;;;;;;;10.45;7.63;;;435.90;2355.20;;;;;;5075284;28;20029;-85
2021/05/28 00:42:12;;;;;;;9.98;7.55;;;435.90;2355.20;;;;;;5091212;28;20025;-85
2021/05/28 00:44:39;;;;;;;8.27;6.35;;;436.00;2355.20;;;;;;5073932;28;20119;-85
2021/05/28 00:47:06;;;;;;;10.25;7.57;;;435.80;2355.20;;;;;;5074153;28;20032;-85
2021/05/28 00:49:32;;;;;;;9.50;6.63;;;436.10;2355.20;;;;;;5075450;28;20058;-85
2021/05/28 00:51:58;;;;;;;9.30;7.47;;;460.90;2380.80;;;;;;5073889;28;20111;-83
2021/05/28 00:54:24;;;;;;;10.60;6.93;;;461.00;2380.80;;;;;;5074007;28;20021;-84
2021/05/28 00:56:51;;;;;;;11.68;7.10;;;461.10;2380.80;;;;;;5075256;28;20031;-84
2021/05/28 00:59:18;;;;;;;11.85;6.90;;;460.90;2380.80;;;;;;5074703;28;20069;-86
2021/05/28 01:01:44;;;;;;;9.93;6.78;;;460.80;2380.80;;;;;;5073686;28;20138;-84
2021/05/28 01:04:10;;;;;;;9.07;6.95;;;460.90;2380.80;;;;;;5074528;28;20048;-84
2021/05/28 01:06:36;;;;;;;9.75;6.45;;;460.90;2380.80;;;;;;5090557;28;20031;-84
2021/05/28 01:09:03;;;;;;;9.73;6.88;;;460.80;2380.80;;;;;;5073061;28;20033;-85
2021/05/28 01:11:29;;;;;;;8.57;6.60;;;460.80;2380.80;;;;;;5073225;28;20414;-84
2021/05/28 01:13:55;;;;;;;10.60;6.65;;;460.80;2380.80;;;;;;5073534;28;20031;-84
2021/05/28 01:16:20;;;;;;;9.25;6.97;;;436.10;2355.20;;;;;;5073474;28;20029;-84
2021/05/28 01:18:46;;;;;;;9.95;7.65;;;460.80;2380.80;;;;;;5073399;28;20032;-84
2021/05/28 01:21:13;;;;;;;10.30;7.75;;;436.10;2355.20;;;;;;5073482;28;20032;-84
2021/05/28 01:23:38;;;;;;;9.80;7.90;;;460.80;2380.80;;;;;;5073373;28;20460;-86
2021/05/28 01:26:06;;;;;;;10.90;7.70;;;436.10;2355.20;;;;;;5073032;28;20052;-83
2021/05/28 01:28:32;;;;;;;8.65;7.35;;;436.10;2355.20;;;;;;5073468;28;20024;-84
2021/05/28 01:30:59;;;;;;;10.93;7.38;;;436.00;2355.20;;;;;;5073197;28;20044;-84
2021/05/28 01:33:28;;;;;;;8.63;7.22;;;435.70;2355.20;;;;;;5090338;28;20024;-85
2021/05/28 01:35:58;;;;;;;12.20;7.75;;;435.80;2355.20;;;;;;5073141;28;20032;-84
2021/05/28 01:38:24;;;;;;;8.07;6.00;;;435.90;2355.20;;;;;;5074554;28;20033;-85
2021/05/28 01:40:51;;;;;;;9.05;6.45;;;435.90;2355.20;;;;;;5072898;28;20025;-86
2021/05/28 01:43:16;;;;;;;10.82;6.70;;;436.00;2355.20;;;;;;5073180;28;20107;-84
2021/05/28 01:45:42;;;;;;;11.80;7.47;;;435.90;2355.20;;;;;;5073209;28;20115;-87
2021/05/28 01:48:09;;;;;;;8.70;7.80;;;435.70;2355.20;;;;;;5073022;28;20028;-85
2021/05/28 01:50:44;;;;;;;10.35;7.88;;;435.30;2355.20;;;;;;5073053;28;20033;-85
2021/05/28 01:53:19;;;;;;;9.52;8.20;;;410.40;2355.20;;;;;;5073186;28;20078;-84
2021/05/28 01:55:45;;;;;;;9.52;7.80;;;410.40;2355.20;;;;;;5073147;28;20145;-86
2021/05/28 01:58:14;;;;;;;11.15;7.65;;;435.30;2355.20;;;;;;5072906;28;20059;-84
2021/05/28 02:00:41;;;;;;;10.18;7.68;;;435.40;2355.20;;;;;;5072863;28;20055;-86
2021/05/28 02:03:07;;;;;;;9.55;8.20;;;435.40;2355.20;;;;;;5073091;28;20052;-85
2021/05/28 02:05:35;;;;;;;9.80;8.20;;;410.30;2355.20;;;;;;5072568;28;20059;-84
2021/05/28 02:08:01;;;;;;;13.25;8.43;;;435.50;2355.20;;;;;;5072748;28;20031;-85
2021/05/28 02:10:29;;;;;;;12.70;10.77;;;435.50;2355.20;;;;;;5073026;28;20361;-87
2021/05/28 02:12:55;;;;;;;25.17;17.20;;;435.50;2355.20;;;;;;5072844;28;20433;-85
2021/05/28 02:15:21;;;;;;;16.13;10.75;;;435.50;2355.20;;;;;;5072665;28;20117;-87
2021/05/28 02:17:46;;;;;;;13.05;9.13;;;435.50;2355.20;;;;;;5072818;28;20380;-86
2021/05/28 02:20:13;;;;;;;12.23;9.90;;;435.50;2355.20;;;;;;5072798;28;20116;-88
2021/05/28 02:22:39;;;;;;;11.25;8.25;;;435.50;2355.20;;;;;;5076943;28;20036;-85
2021/05/28 02:25:06;;;;;;;13.25;7.32;;;435.50;2355.20;;;;;;5076812;28;20033;-85
2021/05/28 02:27:33;;;;;;;11.88;8.57;;;435.60;2355.20;;;;;;5076746;28;20025;-87
2021/05/28 02:29:59;;;;;;;14.90;11.30;;;435.80;2355.20;;;;;;5076840;28;20021;-87
2021/05/28 02:32:25;;;;;;;15.35;11.88;;;435.50;2355.20;;;;;;5076747;28;20024;-85
2021/05/28 02:34:51;;;;;;;11.75;10.27;;;435.60;2355.20;;;;;;5076612;28;20038;-87
2021/05/28 02:37:17;;;;;;;11.30;9.68;;;435.60;2355.20;;;;;;5076349;28;20024;-85
2021/05/28 02:39:43;;;;;;;10.40;9.00;;;435.60;2355.20;;;;;;5076596;28;20033;-86
2021/05/28 02:42:09;;;;;;;12.73;9.02;;;435.70;2355.20;;;;;;5076749;28;20055;-85
2021/05/28 02:44:34;;;;;;;12.23;8.93;;;435.30;2355.20;;;;;;5076450;28;20036;-85
2021/05/28 02:47:00;;;;;;;11.25;8.20;;;435.70;2355.20;;;;;;5076551;28;20020;-85
2021/05/28 02:49:26;;;;;;;14.73;9.32;;;435.50;2355.20;;;;;;5076340;28;20047;-85
2021/05/28 02:51:52;;;;;;;13.40;9.30;;;435.50;2355.20;;;;;;5076294;28;20028;-87
2021/05/28 02:54:18;;;;;;;12.77;8.30;;;435.50;2355.20;;;;;;5093206;28;20029;-86
2021/05/28 02:56:43;;;;;;;12.35;8.07;;;435.30;2355.20;;;;;;5076266;28;20031;-86
2021/05/28 02:59:09;;;;;;;9.43;7.68;;;435.30;2355.20;;;;;;5076357;28;20075;-85
2021/05/28 03:01:35;;;;;;;10.98;8.00;;;435.20;2355.20;;;;;;5076016;28;20119;-86
2021/05/28 03:04:01;;;;;;;9.55;6.90;;;435.30;2355.20;;;;;;5076932;28;20044;-86
2021/05/28 03:06:27;;;;;;;12.43;8.23;;;435.40;2355.20;;;;;;5076170;28;20134;-86
2021/05/28 03:08:52;;;;;;;10.10;8.43;;;435.20;2355.20;;;;;;5075777;28;20450;-86
2021/05/28 03:11:18;;;;;;;11.15;7.50;;;435.20;2355.20;;;;;;5075993;28;20025;-85
2021/05/28 03:13:44;;;;;;;8.93;7.20;;;410.50;2355.20;;;;;;5075897;28;20036;-86
2021/05/28 03:16:10;;;;;;;9.25;6.93;;;435.20;2355.20;;;;;;5077124;28;20078;-85
2021/05/28 03:18:47;;;;;;;13.48;7.82;;;410.50;2355.20;;;;;;5075779;28;20506;-86
2021/05/28 03:21:37;;;;;;;10.48;7.68;;;410.30;2355.20;;;;;;5075929;28;20025;-85
2021/05/28 03:24:04;;;;;;;10.00;7.40;;;410.40;2355.20;;;;;;5076095;28;20025;-85
2021/05/28 03:26:30;;;;;;;10.75;7.75;;;435.20;2355.20;;;;;;5075430;28;20028;-85
2021/05/28 03:28:58;;;;;;;8.45;7.38;;;410.50;2355.20;;;;;;5076986;28;20517;-86
2021/05/28 03:31:24;;;;;;;10.48;7.68;;;435.20;2355.20;;;;;;5075567;28;20078;-86
2021/05/28 03:33:50;;;;;;;11.27;9.02;;;435.20;2355.20;;;;;;5075040;28;20121;-86
2021/05/28 03:36:18;;;;;;;14.70;11.50;;;435.30;2355.20;;;;;;5075643;28;20415;-84
2021/05/28 03:38:44;;;;;;;18.00;14.13;;;435.30;2355.20;;;;;;5075649;28;20024;-86
2021/05/28 03:41:10;;;;;;;17.45;12.50;;;435.50;2355.20;;;;;;5092375;28;20119;-87
2021/05/28 03:43:36;;;;;;;15.10;11.18;;;435.30;2355.20;;;;;;5096045;28;20119;-85
2021/05/28 03:46:03;;;;;;;15.25;9.75;;;435.20;2355.20;;;;;;5081133;28;20060;-85
2021/05/28 03:48:30;;;;;;;10.45;9.05;;;435.30;2355.20;;;;;;5076550;28;20031;-86
2021/05/28 03:50:55;;;;;;;13.07;8.32;;;410.50;2355.20;;;;;;5075305;28;20028;-85
2021/05/28 03:53:21;;;;;;;10.85;7.88;;;435.40;2355.20;;;;;;5075091;28;20070;-85
2021/05/28 03:55:47;;;;;;;16.83;8.93;;;435.40;2355.20;;;;;;5092042;28;20055;-84
2021/05/28 03:58:13;;;;;;;19.17;9.75;;;435.20;2355.20;;;;;;5092292;28;20073;-85
2021/05/28 04:00:39;;;;;;;13.57;9.00;;;410.50;2355.20;;;;;;5076066;28;20027;-86
2021/05/28 04:03:05;;;;;;;11.35;8.70;;;410.50;2355.20;;;;;;5091977;28;20025;-84
2021/05/28 04:05:32;;;;;;;13.93;9.27;;;410.50;2355.20;;;;;;5091789;28;20173;-85
2021/05/28 04:07:58;;;;;;;11.57;9.25;;;410.30;2355.20;;;;;;5074890;28;20024;-86
2021/05/28 04:10:24;;;;;;;13.48;8.63;;;410.20;2355.20;;;;;;5074808;28;20036;-86
2021/05/28 04:12:52;;;;;;;9.98;8.30;;;410.40;2355.20;;;;;;5074753;28;20090;-86
2021/05/28 04:15:18;;;;;;;11.52;8.40;;;435.20;2355.20;;;;;;5075402;28;20032;-86
2021/05/28 04:17:43;;;;;;;10.32;8.93;;;435.20;2355.20;;;;;;5074623;28;20430;-87
2021/05/28 04:20:10;;;;;;;12.13;8.30;;;435.20;2355.20;;;;;;5074803;28;20025;-86
2021/05/28 04:22:36;;;;;;;16.33;9.88;;;435.30;2355.20;;;;;;5074460;28;20464;-85
2021/05/28 04:25:02;;;;;;;14.00;9.20;;;435.20;2355.20;;;;;;5074689;28;20033;-87
2021/05/28 04:27:28;;;;;;;14.00;9.32;;;410.30;2355.20;;;;;;5074478;28;20040;-85
2021/05/28 04:29:53;;;;;;;12.77;9.70;;;410.40;2355.20;;;;;;5074555;28;20492;-84
2021/05/28 04:32:19;;;;;;;10.40;7.53;;;410.40;2355.20;;;;;;5074354;28;20066;-86
2021/05/28 04:34:45;;;;;;;11.68;8.70;;;410.50;2355.20;;;;;;5075643;28;20112;-86
2021/05/28 04:37:11;;;;;;;11.68;8.43;;;435.20;2355.20;;;;;;5074317;28;20028;-85
2021/05/28 04:39:37;;;;;;;11.80;8.48;;;435.20;2355.20;;;;;;5074266;28;20063;-85
2021/05/28 04:42:03;;;;;;;10.18;7.50;;;410.50;2355.20;;;;;;5074227;28;20541;-85
2021/05/28 04:44:28;;;;;;;10.35;7.13;;;435.20;2355.20;;;;;;5073237;28;20021;-87
2021/05/28 04:46:55;;;;;;;11.95;6.55;;;435.30;2355.20;;;;;;5074059;28;20035;-86
2021/05/28 04:49:21;;;;;;;8.38;5.95;;;435.20;2355.20;;;;;;5074064;28;20484;-86
2021/05/28 04:51:48;;;;;;;8.30;6.20;;;435.20;2355.20;;;;;;5075965;28;20024;-90
2021/05/28 04:54:14;;;;;;;9.65;6.57;;;410.50;2355.20;;;;;;5074126;28;20056;-87
2021/05/28 04:56:40;;;;;;;9.95;5.70;;;435.60;2355.20;;;;;;5073971;28;20481;-86
2021/05/28 04:59:06;;;;;;;8.52;6.35;;;410.50;2355.20;;;;;;5073712;28;20031;-86
2021/05/28 05:01:33;;;;;;;8.80;6.20;;;410.50;2355.20;;;;;;5075166;28;20020;-88
2021/05/28 05:03:58;;;;;;;9.77;6.38;;;410.50;2355.20;;;;;;5073322;28;20053;-87
2021/05/28 05:06:24;;;;;;;9.90;6.68;;;410.30;2355.20;;;;;;5073665;28;20059;-87
2021/05/28 05:08:52;;;;;;;11.70;7.80;;;410.30;2355.20;;;;;;5073813;28;20067;-89
2021/05/28 05:11:18;;;;;;;11.07;8.65;;;410.40;2355.20;;;;;;5074659;28;20025;-88
2021/05/28 05:13:44;;;;;;;11.63;7.57;;;410.30;2355.20;;;;;;5073538;28;20112;-87
2021/05/28 05:16:10;;;;;;;11.75;7.97;;;410.30;2355.20;;;;;;5079802;28;20073;-88
2021/05/28 05:18:36;;;;;;;11.80;8.73;;;410.30;2355.20;;;;;;5076980;28;20025;-88
2021/05/28 05:21:02;;;;;;;11.27;10.10;;;410.30;2355.20;;;;;;5073475;28;20021;-88
2021/05/28 05:23:28;;;;;;;13.38;11.55;;;410.20;2355.20;;;;;;5073333;28;20031;-86
2021/05/28 05:25:54;;;;;;;14.60;13.10;;;410.20;2355.20;;;;;;5086885;28;20044;-87
2021/05/28 05:28:22;;;;;;;14.00;12.60;;;410.20;2355.20;;;;;;5093011;28;20024;-86
2021/05/28 05:30:48;;;;;;;17.92;13.20;;;410.20;2355.20;;;;;;5092973;28;20026;-86
2021/05/28 05:33:14;;;;;;;15.48;12.75;;;410.10;2355.20;;;;;;5091841;28;20032;-86
2021/05/28 05:35:40;;;;;;;14.48;13.23;;;410.20;2355.20;;;;;;5076008;28;20036;-87
2021/05/28 05:38:09;;;;;;;19.13;14.27;;;410.20;2355.20;;;;;;5073081;28;20380;-87
2021/05/28 05:40:39;;;;;;;16.40;14.90;;;410.20;2355.20;;;;;;5087133;28;20028;-87
2021/05/28 05:43:05;;;;;;;16.23;14.75;;;410.20;2355.20;;;;;;5091796;28;20060;-86
2021/05/28 05:45:31;;;;;;;18.23;16.45;;;410.30;2355.20;;;;;;5093048;28;20082;-86
2021/05/28 05:47:57;;;;;;;18.05;16.27;;;410.30;2355.20;;;;;;5094208;28;20024;-86
2021/05/28 05:50:23;;;;;;;18.30;16.55;;;410.30;2355.20;;;;;;5092930;28;20030;-86
2021/05/28 05:52:50;;;;;;;17.13;15.20;;;410.30;2355.20;;;;;;5092790;28;20024;-86
2021/05/28 05:55:17;;;;;;;16.75;15.15;;;409.80;2355.20;;;;;;5092872;28;20028;-88
2021/05/28 05:57:43;;;;;;;18.02;15.23;;;410.20;2355.20;;;;;;5092940;28;20028;-87
2021/05/28 06:00:09;;;;;;;15.10;13.55;;;410.20;2355.20;;;;;;5092645;28;20122;-87
2021/05/28 06:02:37;;;;;;;16.58;13.15;;;410.20;2355.20;;;;;;5092756;28;20035;-89
2021/05/28 06:05:07;;;;;;;14.27;12.95;;;410.20;2355.20;;;;;;5092700;28;20563;-90
2021/05/28 06:07:34;;;;;;;14.38;12.95;;;410.20;2355.20;;;;;;5093193;28;20055;-88
2021/05/28 06:10:00;;;;;;;12.95;11.40;;;410.10;2355.20;;;;;;5092881;28;20177;-87
2021/05/28 06:12:26;;;;;;;12.02;10.80;;;409.90;2355.20;;;;;;5092817;28;20077;-89
2021/05/28 06:14:56;;;;;;;11.65;10.18;;;410.10;2355.20;;;;;;5093356;28;20040;-89
2021/05/28 06:17:22;;;;;;;12.52;9.63;;;410.10;2355.20;;;;;;5092831;28;20033;-88
2021/05/28 06:19:47;;;;;;;11.70;10.02;;;410.00;2355.20;;;;;;5092926;28;20476;-89
2021/05/28 06:22:21;;;;;;;11.23;9.30;;;410.00;2355.20;;;;;;5094123;28;20115;-89
2021/05/28 06:24:48;;;;;;;10.77;9.65;;;409.90;2355.20;;;;;;5093643;28;20422;-87
2021/05/28 06:27:15;;;;;;;8.65;7.75;;;409.90;2355.20;;;;;;5093352;28;20052;-90
2021/05/28 06:29:41;;;;;;;9.30;6.85;;;409.90;2355.20;;;;;;5093186;28;20043;-86
2021/05/28 06:32:07;;;;;;;9.77;5.50;;;409.90;2355.20;;;;;;5093836;28;20379;-88
2021/05/28 06:34:33;;;;;;;8.68;6.40;;;409.90;2355.20;;;;;;5093435;28;20024;-87
2021/05/28 06:37:03;;;;;;;5.05;4.03;;;409.90;2355.20;;;;;;5092490;28;20027;-91
2021/05/28 06:39:30;;;;;;;7.90;4.30;;;409.80;2355.20;;;;;;5092704;28;20024;-90
2021/05/28 06:41:56;;;;;;;4.75;4.13;;;409.80;2355.20;;;;;;5093548;28;20102;-88
2021/05/28 06:44:26;;;;;;;4.60;3.42;;;409.70;2355.20;;;;;;5094077;28;20081;-90
2021/05/28 06:46:54;;;;;;;5.53;3.55;;;409.60;2355.20;;;;;;5093821;28;20016;-90
2021/05/28 06:49:21;;;;;;;4.63;3.20;;;409.60;2355.20;;;;;;5094019;28;20024;-88
2021/05/28 06:51:48;;;;;;;5.63;3.55;;;409.60;2355.20;;;;;;5093489;28;20532;-87
2021/05/28 06:54:15;;;;;;;6.75;3.90;;;409.60;2355.20;;;;;;5093016;28;20094;-88
2021/05/28 06:56:41;;;;;;;9.98;3.65;;;384.90;2329.60;;;;;;5093117;28;20031;-87
2021/05/28 06:59:09;;;;;;;7.47;4.07;;;384.80;2329.60;;;;;;5093049;28;20357;-90
2021/05/28 07:01:35;;;;;;;7.05;3.72;;;384.90;2329.60;;;;;;5093354;28;20043;-89
2021/05/28 07:04:02;;;;;;;4.50;3.53;;;384.80;2329.60;;;;;;5093921;28;20051;-90
2021/05/28 07:06:29;;;;;;;5.25;3.72;;;410.20;2355.20;;;;;;5096242;28;20032;-89
2021/05/28 07:08:56;;;;;;;10.32;3.90;;;409.60;2355.20;;;;;;5101958;28;20024;-92
2021/05/28 07:11:23;;;;;;;6.00;3.83;;;409.60;2355.20;;;;;;5099446;28;20020;-91
2021/05/28 07:13:48;;;;;;;5.20;3.53;;;384.90;2329.60;;;;;;5096370;28;20024;-87
2021/05/28 07:16:14;;;;;;;6.55;3.58;;;384.90;2329.60;;;;;;5096759;28;20039;-88
2021/05/28 07:18:40;;;;;;;6.28;3.63;;;409.60;2355.20;;;;;;5096221;28;20107;-88
2021/05/28 07:21:06;;;;;;;6.93;3.83;;;384.90;2329.60;;;;;;5098065;28;20070;-88
2021/05/28 07:23:32;;;;;;;4.78;3.45;;;409.60;2355.20;;;;;;5096825;28;20032;-89
2021/05/28 07:26:00;;;;;;;4.45;3.42;;;384.90;2329.60;;;;;;5097105;28;20060;-89
2021/05/28 07:28:30;;;;;;;4.85;3.65;;;384.90;2329.60;;;;;;5096338;28;20020;-88
2021/05/28 07:30:57;;;;;;;5.05;3.90;;;384.90;2329.60;;;;;;5097298;28;20035;-88
2021/05/28 07:33:24;;;;;;;6.35;3.80;;;384.80;2329.60;;;;;;5097996;28;20035;-89
2021/05/28 07:35:50;;;;;;;5.82;3.67;;;384.70;2329.60;;;;;;5098210;28;20032;-89
2021/05/28 07:38:16;;;;;;;6.45;3.70;;;384.70;2329.60;;;;;;5097695;28;20028;-89
2021/05/28 07:40:42;;;;;;;9.52;4.60;;;384.80;2329.60;;;;;;5096704;28;20035;-92
2021/05/28 07:43:08;;;;;;;6.40;4.53;;;384.80;2329.60;;;;;;5095991;28;20380;-89
2021/05/28 07:45:36;;;;;;;7.53;5.75;;;384.70;2329.60;;;;;;5096072;28;20035;-92
2021/05/28 07:48:02;;;;;;;8.00;5.20;;;384.70;2329.60;;;;;;5096480;28;20032;-87
2021/05/28 07:50:44;;;;;;;6.75;4.60;;;384.80;2329.60;;;;;;5095895;28;20020;-88
2021/05/28 07:53:12;;;;;;;8.70;4.93;;;384.80;2329.60;;;;;;5096581;28;20020;-91
2021/05/28 07:55:45;;;;;;;6.93;5.00;;;384.80;2329.60;;;;;;5095813;28;20088;-87
2021/05/28 07:58:11;;;;;;;7.38;4.93;;;384.90;2329.60;;;;;;5096116;28;20039;-89
2021/05/28 08:00:38;;;;;;;6.63;5.68;;;384.90;2329.60;;;;;;5096007;28;20024;-90
2021/05/28 08:03:04;;;;;;;8.45;5.72;;;384.90;2329.60;;;;;;5096047;28;20046;-91
2021/05/28 08:05:30;;;;;;;6.90;5.25;;;384.90;2329.60;;;;;;5094956;28;20048;-87
2021/05/28 08:07:56;;;;;;;9.00;6.85;;;384.90;2329.60;;;;;;5096756;28;20103;-88
2021/05/28 08:10:23;;;;;;;7.53;6.72;;;384.90;2329.60;;;;;;5095450;28;20059;-90
2021/05/28 08:12:50;;;;;;;11.63;8.95;;;384.80;2329.60;;;;;;5094921;28;20020;-86
2021/05/28 08:15:17;;;;;;;9.10;6.63;;;384.90;2329.60;;;;;;5094934;28;20036;-88
2021/05/28 08:17:43;;;;;;;11.45;6.90;;;384.90;2329.60;;;;;;5095216;28;20051;-89
2021/05/28 08:20:10;;;;;;;11.00;8.82;;;384.80;2329.60;;;;;;5094415;28;20025;-87
2021/05/28 08:22:36;;;;;;;11.73;9.32;;;384.90;2329.60;;;;;;5094973;28;20024;-90
2021/05/28 08:25:02;;;;;;;14.38;10.13;;;384.90;2329.60;;;;;;5094847;28;20419;-87
2021/05/28 08:27:28;;;;;;;11.80;8.45;;;384.90;2329.60;;;;;;5094737;28;20050;-87
2021/05/28 08:29:54;;;;;;;12.00;9.25;;;384.80;2329.60;;;;;;5095030;28;20496;-88
2021/05/28 08:32:20;;;;;;;9.55;8.45;;;384.80;2329.60;;;;;;5094656;28;20024;-87
2021/05/28 08:34:46;;;;;;;9.70;8.75;;;384.70;2329.60;;;;;;5095999;28;20387;-87
2021/05/28 08:37:12;;;;;;;10.52;8.50;;;384.60;2329.60;;;;;;5094771;28;20402;-86
2021/05/28 08:39:38;;;;;;;9.90;8.15;;;384.60;2329.60;;;;;;5104678;28;20024;-88
2021/05/28 08:42:05;;;;;;;10.13;8.82;;;384.60;2329.60;;;;;;5111097;28;20028;-87
2021/05/28 08:44:32;;;;;;;9.80;8.90;;;384.40;2329.60;;;;;;5086466;28;20092;-88
2021/05/28 08:46:59;;;;;;;9.55;8.05;;;384.30;2329.60;;;;;;5082911;28;20009;-87
2021/05/28 08:49:25;;;;;;;8.23;7.43;;;384.40;2329.60;;;;;;5090814;28;20479;-89
2021/05/28 08:51:51;;;;;;;8.05;7.25;;;384.40;2329.60;;;;;;5085739;28;20020;-88
2021/05/28 08:54:19;;;;;;;9.00;8.13;;;384.40;2329.60;;;;;;5074114;28;20035;-88
2021/05/28 08:56:49;;;;;;;12.30;9.20;;;384.40;2329.60;;;;;;5075505;28;20031;-88
2021/05/28 08:59:16;;;;;;;12.27;10.63;;;384.40;2329.60;;;;;;5074022;28;20021;-89
2021/05/28 09:01:42;;;;;;;11.57;9.55;;;384.40;2329.60;;;;;;5073573;28;20025;-87
2021/05/28 09:04:10;;;;;;;8.38;7.57;;;384.60;2329.60;;;;;;5073457;28;20052;-89
2021/05/28 09:06:46;;;;;;;11.32;7.68;;;384.60;2329.60;;;;;;5073979;28;20040;-88
2021/05/28 09:09:14;;;;;;;13.20;7.80;;;384.50;2329.60;;;;;;5073716;28;20028;-88
2021/05/28 09:12:01;;;;;;;11.73;8.70;;;384.50;2329.60;;;;;;5073761;28;20040;-89
2021/05/28 09:15:18;;;;;;;11.10;9.02;;;384.40;2329.60;;;;;;5073454;28;20025;-88
2021/05/28 09:17:53;;;;;;;15.40;9.82;;;384.30;2329.60;;;;;;5040186;28;20036;-88
2021/05/28 09:20:19;;;;;;;25.20;12.88;;;384.50;2329.60;;;;;;5073792;28;20560;-88
2021/05/28 09:22:46;;;;;;;24.63;13.20;;;384.50;2329.60;;;;;;5073301;28;20029;-88
2021/05/28 09:25:13;;;;;;;17.65;9.85;;;384.50;2329.60;;;;;;5073160;28;20036;-88
2021/05/28 09:27:40;;;;;;;9.52;7.47;;;384.60;2329.60;;;;;;5074378;28;20044;-87
2021/05/28 09:30:20;;;;;;;11.25;7.63;;;384.40;2329.60;;;;;;5072826;28;20027;-89
2021/05/28 09:32:50;;;;;;;8.38;6.72;;;384.40;2329.60;;;;;;5073499;28;20032;-87
2021/05/28 09:35:22;;;;;;;8.45;7.55;;;384.30;2329.60;;;;;;5073562;28;20032;-90
2021/05/28 09:37:56;;;;;;;7.68;6.88;;;384.30;2329.60;;;;;;5073457;28;20036;-88
2021/05/28 09:40:29;;;;;;;6.75;6.05;;;384.30;2329.60;;;;;;5073079;28;20056;-89
2021/05/28 09:43:01;;;;;;;6.85;6.15;;;384.20;2329.60;;;;;;5073421;28;20086;-89
2021/05/28 09:45:41;;;;;;;7.10;5.10;;;384.20;2329.60;;;;;;5073123;28;20066;-88
2021/05/28 09:48:22;;;;;;;5.60;4.68;;;384.00;2329.60;;;;;;5074241;28;20392;-89
2021/05/28 09:50:53;;;;;;;6.82;4.63;;;384.00;2329.60;;;;;;5056307;28;20020;-89
2021/05/28 09:53:43;;;;;;;9.63;4.65;;;359.20;2329.60;;;;;;5073250;28;20023;-88
2021/05/28 09:57:22;;;;;;;5.63;4.25;;;359.20;2329.60;;;;;;5072945;28;20047;-90
2021/05/28 09:59:57;;;;;;;9.43;5.72;;;359.20;2329.60;;;;;;4977711;28;20072;-88
2021/05/28 10:02:36;;;;;;;5.50;4.25;;;359.20;2329.60;;;;;;5072966;28;20124;-88
2021/05/28 10:05:05;;;;;;;6.07;4.43;;;359.20;2329.60;;;;;;5057541;28;20052;-88
2021/05/28 10:07:33;;;;;;;4.90;3.55;;;359.20;2329.60;;;;;;5056392;28;20029;-88
2021/05/28 10:10:01;;;;;;;14.02;5.80;;;359.10;2329.60;;;;;;5072749;28;20016;-88
2021/05/28 10:12:31;;;;;;;5.53;4.28;;;359.10;2329.60;;;;;;5072531;28;20052;-88
2021/05/28 10:15:16;;;;;;;6.90;4.72;;;359.10;2329.60;;;;;;5056745;28;20040;-88
2021/05/28 10:17:48;;;;;;;6.15;4.78;;;359.20;2329.60;;;;;;5072659;28;20032;-87
2021/05/28 10:21:02;;;;;;;7.10;4.40;;;359.30;2329.60;;;;;;5073973;28;20024;-88
2021/05/28 10:23:31;;;;;;;7.22;5.15;;;384.00;2329.60;;;;;;5048099;28;20528;-87
2021/05/28 10:26:04;;;;;;;6.15;4.70;;;384.00;2329.60;;;;;;5056261;28;20090;-88
2021/05/28 10:28:33;;;;;;;5.90;4.80;;;384.00;2329.60;;;;;;5072671;28;20020;-88
2021/05/28 10:31:06;;;;;;;5.70;4.93;;;384.00;2329.60;;;;;;5074341;28;20079;-88
2021/05/28 10:33:53;;;;;;;7.25;5.25;;;384.10;2329.60;;;;;;5077623;28;20025;-89
2021/05/28 10:36:50;;;;;;;9.48;6.63;;;384.30;2329.60;;;;;;5074866;28;20041;-88
2021/05/28 10:39:46;;;;;;;7.90;6.55;;;384.10;2329.60;;;;;;5072436;28;20074;-89
2021/05/28 10:42:15;;;;;;;9.02;5.68;;;384.30;2329.60;;;;;;5073023;28;20107;-89
2021/05/28 10:44:45;;;;;;;6.03;4.57;;;384.40;2329.60;;;;;;5076774;28;20431;-89
2021/05/28 10:47:20;;;;;;;10.13;5.28;;;384.60;2329.60;;;;;;5076406;28;20021;-90
2021/05/28 10:49:48;;;;;;;6.20;4.07;;;384.90;2329.60;;;;;;5077463;28;20021;-87
2021/05/28 10:52:35;;;;;;;6.50;4.75;;;409.60;2355.20;;;;;;5076396;28;20542;-89
2021/05/28 10:55:14;;;;;;;7.30;5.18;;;409.60;2355.20;;;;;;5076309;28;20033;-88
2021/05/28 10:57:51;;;;;;;6.13;4.68;;;384.90;2329.60;;;;;;5076604;28;20036;-88
2021/05/28 11:00:27;;;;;;;7.88;5.65;;;409.70;2355.20;;;;;;5076311;28;20030;-88
2021/05/28 11:02:58;;;;;;;7.43;5.70;;;409.80;2355.20;;;;;;5076439;28;20365;-88
2021/05/28 11:05:43;;;;;;;10.20;5.82;;;409.80;2355.20;;;;;;5075848;28;20045;-88
2021/05/28 11:08:43;;;;;;;5.88;4.60;;;409.90;2355.20;;;;;;5076072;28;20111;-88
2021/05/28 11:11:38;;;;;;;5.85;4.30;;;409.90;2355.20;;;;;;5075755;28;20400;-88
2021/05/28 11:14:08;;;;;;;6.22;4.50;;;409.90;2355.20;;;;;;5075857;28;20036;-87
2021/05/28 11:16:52;;;;;;;7.55;4.70;;;409.90;2355.20;;;;;;5076259;28;20074;-88
2021/05/28 11:19:26;;;;;;;5.45;3.70;;;409.90;2355.20;;;;;;5076117;28;20424;-88
2021/05/28 11:21:56;;;;;;;5.25;3.85;;;409.90;2355.20;;;;;;5077171;28;20039;-87
2021/05/28 11:24:51;;;;;;;5.13;3.95;;;410.00;2355.20;;;;;;5075962;28;20029;-88
2021/05/28 11:27:20;;;;;;;7.55;4.75;;;410.00;2355.20;;;;;;5075865;28;20036;-88
2021/05/28 11:29:52;;;;;;;6.28;4.60;;;410.00;2355.20;;;;;;5075916;28;20024;-86
2021/05/28 11:32:49;;;;;;;5.20;3.50;;;410.20;2355.20;;;;;;5077089;28;20021;-89
2021/05/28 11:35:24;;;;;;;5.78;3.88;;;410.20;2355.20;;;;;;5075621;28;20526;-87
2021/05/28 11:38:01;;;;;;;10.98;4.97;;;410.30;2355.20;;;;;;5075639;28;20020;-87
2021/05/28 11:40:45;;;;;;;7.90;4.97;;;410.30;2355.20;;;;;;5075558;28;20111;-86
2021/05/28 11:43:13;;;;;;;6.28;4.95;;;410.50;2355.20;;;;;;5075484;28;20024;-88
2021/05/28 11:45:43;;;;;;;6.30;4.18;;;435.20;2355.20;;;;;;5075534;28;20041;-87
2021/05/28 11:48:14;;;;;;;8.50;4.90;;;435.20;2355.20;;;;;;5075698;28;20028;-86
2021/05/28 11:50:45;;;;;;;8.57;4.95;;;435.40;2355.20;;;;;;5075837;28;20029;-87
2021/05/28 11:53:11;;;;;;;7.57;4.43;;;435.60;2355.20;;;;;;5075265;28;20020;-91
2021/05/28 11:55:49;;;;;;;8.07;5.43;;;436.10;2355.20;;;;;;5076547;28;20346;-87
2021/05/28 11:58:17;;;;;;;8.30;4.60;;;461.20;2380.80;;;;;;5076449;28;20031;-86
2021/05/28 12:00:44;;;;;;;7.95;3.88;;;461.20;2380.80;;;;;;5075218;28;20024;-84
2021/05/28 12:03:10;;;;;;;7.97;3.63;;;461.10;2380.80;;;;;;5075339;28;20033;-87
2021/05/28 12:05:44;;;;;;;4.38;3.00;;;461.10;2380.80;;;;;;5074781;28;20497;-87
2021/05/28 12:08:10;;;;;;;4.20;3.03;;;461.40;2380.80;;;;;;5075320;28;20035;-86
2021/05/28 12:10:39;;;;;;;4.10;2.40;;;461.30;2380.80;;;;;;5074905;28;20025;-85
2021/05/28 12:13:11;;;;;;;4.35;2.80;;;461.40;2380.80;;;;;;5075368;28;20539;-86
2021/05/28 12:15:55;;;;;;;4.38;2.80;;;461.30;2380.80;;;;;;5075746;28;20062;-86
2021/05/28 12:18:22;;;;;;;4.13;2.58;;;461.20;2380.80;;;;;;5075256;28;20055;-86
2021/05/28 12:20:55;;;;;;;3.70;2.50;;;461.20;2380.80;;;;;;5075079;28;20031;-86